Time;durP1;ratioP1;P1;durP2;ratioP2;P2;SDS_P1;SDS_P2;PMS_P1;PMS_P2;Temp;Humidity;BMP_temperature;BMP_pressure;BME280_temperature;BME280_humidity;BME280_pressure;Samples;Min_cycle;Max_cycle;Signal;HPM_P1;HPM_P2
2022/10/08 00:00:17;;;;;;;24.45;17.27;;;;;;;7.48;90.49;98500.91;10423518;28;20108;-57
2022/10/08 00:05:16;;;;;;;27.70;19.05;;;;;;;7.47;90.47;98504.31;10423206;28;20498;-57
2022/10/08 00:10:15;;;;;;;27.45;18.20;;;;;;;7.45;90.76;98498.22;10420904;28;20024;-57
2022/10/08 00:15:14;;;;;;;27.50;18.83;;;;;;;7.42;91.35;98490.41;10419500;28;20021;-58
2022/10/08 00:20:13;;;;;;;27.67;17.85;;;;;;;7.33;91.70;98483.28;10419094;28;20060;-57
2022/10/08 00:25:12;;;;;;;28.20;19.38;;;;;;;7.25;91.97;98485.69;10419131;28;20025;-57
2022/10/08 00:30:12;;;;;;;30.13;20.05;;;;;;;7.11;92.58;98479.34;10419068;28;20056;-57
2022/10/08 00:35:10;;;;;;;;;;;;;;;7.03;92.88;98479.16;10419404;28;20064;-57
2022/10/08 00:40:09;;;;;;;25.80;18.10;;;;;;;6.93;92.50;98472.00;10418537;28;19995;-57
2022/10/08 00:45:12;;;;;;;27.33;17.98;;;;;;;6.86;92.69;98464.09;10417830;28;20025;-57
2022/10/08 00:50:23;;;;;;;24.63;17.85;;;;;;;6.83;92.77;98464.88;10417909;28;20056;-57
2022/10/08 00:55:26;;;;;;;24.50;16.95;;;;;;;6.80;92.21;98463.09;10417800;28;20064;-57
2022/10/08 01:00:25;;;;;;;26.90;16.60;;;;;;;6.79;92.36;98458.75;10417478;28;20080;-57
2022/10/08 01:06:04;;;;;;;27.65;17.58;;;;;;;6.80;93.12;98459.66;10417597;28;20036;-57
2022/10/08 01:11:09;;;;;;;27.42;17.58;;;;;;;6.79;92.47;98445.84;10415389;28;20068;-57
2022/10/08 01:16:32;;;;;;;24.27;17.83;;;;;;;6.76;92.65;98447.50;10416680;28;20080;-57
2022/10/08 01:21:46;;;;;;;29.08;18.08;;;;;;;6.75;93.40;98440.59;10416375;28;20464;-57
2022/10/08 01:26:56;;;;;;;24.92;17.65;;;;;;;6.75;93.10;98438.91;10416286;28;20150;-57
2022/10/08 01:32:14;;;;;;;26.92;18.15;;;;;;;6.70;92.57;98435.34;10414650;28;20068;-57
2022/10/08 01:37:26;;;;;;;26.52;18.65;;;;;;;6.67;92.68;98426.63;10416414;28;20470;-57
2022/10/08 01:42:26;;;;;;;24.73;17.98;;;;;;;6.57;93.28;98417.81;10416266;28;20084;-57
2022/10/08 01:47:29;;;;;;;27.95;19.15;;;;;;;6.61;92.48;98415.34;10415639;28;20068;-57
2022/10/08 01:52:46;;;;;;;24.77;17.73;;;;;;;6.51;93.24;98415.91;10415751;28;20520;-57
2022/10/08 01:57:48;;;;;;;28.25;18.08;;;;;;;6.57;93.07;98435.84;10415005;28;20099;-57
2022/10/08 02:02:47;;;;;;;24.45;18.48;;;;;;;6.59;93.16;98421.28;10415455;28;20594;-57
2022/10/08 02:07:46;;;;;;;24.35;17.52;;;;;;;6.61;92.88;98427.38;10415110;28;20511;-57
2022/10/08 02:12:45;;;;;;;27.95;18.20;;;;;;;6.56;93.92;98424.66;10415430;28;20036;-57
2022/10/08 02:17:46;;;;;;;25.42;17.88;;;;;;;6.56;93.38;98436.66;10414679;28;20115;-57
2022/10/08 02:22:45;;;;;;;26.70;18.23;;;;;;;6.49;93.20;98429.59;10414308;28;20071;-58
2022/10/08 02:27:58;;;;;;;26.08;17.63;;;;;;;6.45;93.49;98426.09;10414742;28;20028;-57
2022/10/08 02:33:03;;;;;;;28.15;17.67;;;;;;;6.38;93.15;98419.91;10414379;28;20060;-57
2022/10/08 02:38:15;;;;;;;26.23;19.00;;;;;;;6.39;93.63;98421.63;10414101;28;20080;-57
2022/10/08 02:43:21;;;;;;;25.25;17.60;;;;;;;6.41;92.74;98424.25;10414424;28;20068;-58
2022/10/08 02:48:30;;;;;;;26.05;17.63;;;;;;;6.24;93.46;98426.41;10412570;28;20086;-57
2022/10/08 02:53:29;;;;;;;25.67;16.98;;;;;;;6.24;93.14;98420.38;10414019;28;20464;-57
2022/10/08 02:58:28;;;;;;;22.63;16.42;;;;;;;6.21;93.38;98415.13;10414057;28;20522;-57
2022/10/08 03:03:33;;;;;;;27.73;19.13;;;;;;;6.20;93.22;98419.41;10414029;28;20098;-57
2022/10/08 03:08:37;;;;;;;26.85;19.67;;;;;;;6.07;93.39;98399.28;10414003;28;20453;-57
2022/10/08 03:13:39;;;;;;;23.05;16.88;;;;;;;6.09;93.41;98405.34;10421943;28;20494;-57
2022/10/08 03:18:39;;;;;;;28.45;17.92;;;;;;;6.07;93.23;98412.16;10421882;28;20087;-57
2022/10/08 03:23:39;;;;;;;24.63;16.52;;;;;;;6.05;92.72;98413.84;10421368;28;20087;-57
2022/10/08 03:28:38;;;;;;;28.13;16.92;;;;;;;5.96;93.08;98397.31;10421313;28;20067;-57
2022/10/08 03:33:37;;;;;;;25.30;16.33;;;;;;;6.05;93.08;98403.56;10421672;28;20033;-57
2022/10/08 03:38:36;;;;;;;26.65;18.85;;;;;;;6.01;93.87;98399.13;10419788;28;20072;-57
2022/10/08 03:43:35;;;;;;;27.65;17.48;;;;;;;6.01;93.47;98412.03;10419274;28;20121;-57
2022/10/08 03:48:34;;;;;;;34.45;20.83;;;;;;;5.92;94.18;98405.75;10421179;28;20495;-57
2022/10/08 03:53:35;;;;;;;;;;;;;;;5.96;93.76;98399.88;10421340;28;20511;-57
2022/10/08 03:58:34;;;;;;;27.58;19.30;;;;;;;5.98;93.72;98398.22;10419947;28;19955;-57
2022/10/08 04:03:33;;;;;;;27.38;18.67;;;;;;;6.04;93.85;98402.66;10419549;28;20067;-59
2022/10/08 04:08:33;;;;;;;29.58;19.80;;;;;;;6.13;93.49;98409.78;10419613;28;20036;-57
2022/10/08 04:13:33;;;;;;;29.23;18.70;;;;;;;6.18;93.97;98410.75;10423000;28;20510;-57
2022/10/08 04:18:33;;;;;;;27.60;18.90;;;;;;;6.28;93.16;98417.03;10422742;28;20080;-57
2022/10/08 04:23:34;;;;;;;37.42;23.80;;;;;;;6.31;93.14;98412.84;10421468;28;20060;-57
2022/10/08 04:28:35;;;;;;;53.88;19.05;;;;;;;6.16;92.85;98415.00;10420204;28;20063;-58
2022/10/08 04:33:35;;;;;;;53.63;19.17;;;;;;;5.72;94.25;98410.38;10419005;28;20066;-57
2022/10/08 04:38:34;;;;;;;49.83;19.52;;;;;;;5.39;95.28;98412.84;10419302;28;20312;-57
2022/10/08 04:43:34;;;;;;;55.53;23.85;;;;;;;5.28;95.88;98411.63;10421788;28;20020;-57
2022/10/08 04:48:33;;;;;;;74.43;21.83;;;;;;;5.24;95.20;98391.78;10421786;28;20068;-57
2022/10/08 04:53:34;;;;;;;39.10;18.52;;;;;;;5.43;95.08;98401.78;10421688;28;20024;-57
2022/10/08 04:58:33;;;;;;;24.88;16.10;;;;;;;5.55;95.20;98402.16;10421371;28;20060;-57
2022/10/08 05:03:37;;;;;;;29.13;18.67;;;;;;;5.70;94.90;98416.31;10421526;28;20044;-57
2022/10/08 05:08:36;;;;;;;30.30;20.20;;;;;;;5.76;95.03;98406.16;10420030;28;20052;-57
2022/10/08 05:13:36;;;;;;;34.97;19.75;;;;;;;5.87;94.98;98409.06;10417174;28;20075;-57
2022/10/08 05:18:35;;;;;;;;;;;;;;;5.91;94.98;98411.75;10416956;28;20080;-57
2022/10/08 05:23:35;;;;;;;44.17;26.47;;;;;;;5.92;94.27;98410.06;10409385;28;20437;-57
2022/10/08 05:28:33;;;;;;;;;;;;;;;5.83;95.22;98413.22;10415228;28;20295;-57
2022/10/08 05:33:34;;;;;;;31.73;21.55;;;;;;;5.75;94.51;98419.88;10414516;28;19951;-57
2022/10/08 05:38:34;;;;;;;26.30;19.63;;;;;;;5.65;94.55;98413.59;10391915;28;20563;-58
2022/10/08 05:43:33;;;;;;;26.77;21.10;;;;;;;5.68;94.61;98411.09;10411781;28;20071;-57
2022/10/08 05:48:32;;;;;;;42.80;33.35;;;;;;;5.70;94.60;98416.31;10383484;28;20060;-57
2022/10/08 05:53:33;;;;;;;;;;;;;;;5.77;93.67;98415.66;10372927;28;20061;-57
2022/10/08 05:58:33;;;;;;;;;;;;;;;5.85;93.85;98416.72;10371618;28;20000;-57
2022/10/08 06:03:33;;;;;;;44.90;29.27;;;;;;;5.94;93.34;98418.69;10371900;28;20398;-57
2022/10/08 06:08:33;;;;;;;46.20;27.85;;;;;;;6.01;93.32;98417.16;10371453;28;20075;-57
2022/10/08 06:13:33;;;;;;;47.67;31.83;;;;;;;6.07;93.68;98410.50;10370150;28;20487;-57
2022/10/08 06:18:35;;;;;;;59.78;39.20;;;;;;;6.17;93.25;98412.47;10368879;28;20099;-58
2022/10/08 06:23:34;;;;;;;64.75;42.28;;;;;;;6.25;93.58;98420.41;10394607;28;20070;-59
2022/10/08 06:28:36;;;;;;;65.07;41.10;;;;;;;6.34;93.57;98417.19;10412411;28;20048;-59
2022/10/08 06:33:36;;;;;;;56.38;40.22;;;;;;;6.43;94.08;98414.00;10412022;28;20572;-59
2022/10/08 06:38:35;;;;;;;91.28;48.63;;;;;;;6.52;93.93;98397.06;10394488;28;20060;-59
2022/10/08 06:43:34;;;;;;;70.35;40.67;;;;;;;6.74;93.28;98402.75;10370293;28;20504;-59
2022/10/08 06:48:33;;;;;;;62.03;37.53;;;;;;;6.93;93.64;98404.91;10372355;28;20064;-59
2022/10/08 06:53:33;;;;;;;;;;;;;;;7.13;93.97;98407.97;10372946;28;20076;-59
2022/10/08 06:58:34;;;;;;;67.70;49.70;;;;;;;7.29;94.11;98383.41;10372997;28;20360;-58
2022/10/08 07:03:34;;;;;;;56.08;40.90;;;;;;;7.60;94.59;98404.75;10379123;28;20068;-58
2022/10/08 07:08:35;;;;;;;58.63;36.42;;;;;;;7.82;95.11;98398.31;10412886;28;20483;-58
2022/10/08 07:13:34;;;;;;;57.97;40.45;;;;;;;8.09;95.25;98395.41;10415182;28;20075;-58
2022/10/08 07:18:34;;;;;;;42.25;29.98;;;;;;;8.39;94.93;98395.09;10414104;28;20071;-59
2022/10/08 07:23:33;;;;;;;43.05;25.42;;;;;;;8.63;95.44;98394.66;10413853;28;20550;-59
2022/10/08 07:28:33;;;;;;;;;;;;;;;8.97;94.60;98383.97;10415729;28;20077;-59
2022/10/08 07:33:33;;;;;;;63.85;39.45;;;;;;;9.27;94.16;98389.59;10415874;28;19954;-60
2022/10/08 07:38:32;;;;;;;53.25;33.85;;;;;;;9.56;92.89;98384.00;10412952;28;20478;-59
2022/10/08 07:43:31;;;;;;;42.80;30.27;;;;;;;9.83;91.75;98380.00;10413590;28;20372;-59
2022/10/08 07:48:30;;;;;;;33.95;25.45;;;;;;;10.10;91.89;98366.50;10414946;28;20044;-59
2022/10/08 07:53:29;;;;;;;37.35;25.40;;;;;;;10.37;91.04;98363.28;10414945;28;20104;-59
2022/10/08 07:58:28;;;;;;;37.42;24.60;;;;;;;10.62;90.57;98360.06;10420467;28;20016;-59
2022/10/08 08:03:27;;;;;;;29.15;23.67;;;;;;;10.92;89.01;98360.34;10422508;28;20063;-59
2022/10/08 08:08:26;;;;;;;28.70;21.75;;;;;;;11.05;87.50;98346.56;10420690;28;20071;-59
2022/10/08 08:13:27;;;;;;;27.17;20.60;;;;;;;11.43;86.61;98344.22;10416694;28;20074;-59
2022/10/08 08:18:31;;;;;;;25.17;18.63;;;;;;;11.77;86.30;98340.88;10417738;28;20087;-59
2022/10/08 08:23:34;;;;;;;23.95;17.75;;;;;;;12.06;84.50;98338.34;10418869;28;20079;-59
2022/10/08 08:28:34;;;;;;;21.02;13.00;;;;;;;12.29;82.94;98334.09;10418744;28;20068;-59
2022/10/08 08:33:33;;;;;;;16.40;11.20;;;;;;;12.59;81.66;98328.91;10418562;28;20060;-59
2022/10/08 08:38:36;;;;;;;;;;;;;;;12.87;79.66;98324.56;10404079;28;20064;-59
2022/10/08 08:43:34;;;;;;;12.55;8.65;;;;;;;13.05;78.38;98310.66;10401530;28;19963;-59
2022/10/08 08:48:36;;;;;;;15.43;8.02;;;;;;;13.37;77.41;98315.75;10417764;28;20047;-59
2022/10/08 08:53:35;;;;;;;13.70;9.02;;;;;;;13.68;77.10;98310.47;10418730;28;20087;-59
2022/10/08 08:58:52;;;;;;;20.08;8.30;;;;;;;14.02;76.03;98305.06;10416726;28;20037;-59
2022/10/08 09:03:58;;;;;;;12.13;8.30;;;;;;;14.32;73.64;98298.78;10417495;28;20083;-59
2022/10/08 09:09:14;;;;;;;10.95;6.97;;;;;;;14.54;71.84;98284.66;10416348;28;20064;-59
2022/10/08 09:14:37;;;;;;;12.07;7.25;;;;;;;14.69;70.02;98262.78;10417559;28;20115;-59
2022/10/08 09:19:38;;;;;;;10.45;7.95;;;;;;;15.07;69.64;98263.31;10415130;28;20083;-59
2022/10/08 09:24:37;;;;;;;14.15;6.88;;;;;;;15.40;69.10;98264.69;10414748;28;20076;-59
2022/10/08 09:29:37;;;;;;;;;;;;;;;15.62;68.38;98268.75;10416873;28;20086;-59
2022/10/08 09:34:36;;;;;;;12.02;6.43;;;;;;;15.76;66.76;98246.75;10416367;28;19951;-59
2022/10/08 09:39:36;;;;;;;13.48;8.38;;;;;;;16.11;66.56;98241.03;10394521;28;20452;-59
2022/10/08 09:44:57;;;;;;;9.25;7.25;;;;;;;16.36;65.03;98246.75;10375486;28;20506;-59
2022/10/08 09:50:17;;;;;;;9.10;6.88;;;;;;;16.67;65.08;98238.38;10374904;28;20926;-59
2022/10/08 09:55:28;;;;;;;22.85;7.25;;;;;;;16.92;62.67;98226.56;10374429;28;20072;-59
2022/10/08 10:00:34;;;;;;;10.77;6.13;;;;;;;17.08;60.73;98218.44;10374219;28;20052;-59
2022/10/08 10:05:35;;;;;;;9.88;5.88;;;;;;;17.10;57.36;98220.13;10374176;28;20076;-59
2022/10/08 10:10:39;;;;;;;8.18;5.25;;;;;;;17.35;58.20;98199.50;10375570;28;20061;-59
2022/10/08 10:16:07;;;;;;;8.55;5.80;;;;;;;17.60;57.12;98187.59;10377186;28;20080;-59
2022/10/08 10:21:14;;;;;;;9.10;6.03;;;;;;;17.70;57.34;98179.47;10380083;28;20056;-59
2022/10/08 10:26:23;;;;;;;7.18;5.45;;;;;;;17.85;57.04;98174.81;10418397;28;20067;-59
2022/10/08 10:31:38;;;;;;;8.77;5.70;;;;;;;18.07;57.10;98156.78;10418165;28;20479;-60
2022/10/08 10:36:59;;;;;;;8.20;5.50;;;;;;;18.25;55.79;98158.09;10416712;28;20369;-59
2022/10/08 10:42:17;;;;;;;11.48;5.65;;;;;;;18.40;54.66;98149.78;10417555;28;20072;-59
2022/10/08 10:47:20;;;;;;;6.57;5.18;;;;;;;18.48;52.25;98141.69;10416946;28;20071;-59
2022/10/08 10:52:40;;;;;;;10.60;5.95;;;;;;;18.62;52.39;98144.84;10416870;28;20064;-59
2022/10/08 10:57:55;;;;;;;6.63;5.38;;;;;;;18.64;51.49;98121.13;10416206;28;20531;-59
2022/10/08 11:03:12;;;;;;;6.78;5.60;;;;;;;18.99;51.90;98118.41;10417571;28;20068;-59
2022/10/08 11:08:33;;;;;;;8.00;5.30;;;;;;;19.18;51.27;98102.06;10416957;28;20079;-59
2022/10/08 11:13:32;;;;;;;6.88;5.10;;;;;;;19.16;49.48;98098.66;10414502;28;20067;-59
2022/10/08 11:18:43;;;;;;;6.30;5.10;;;;;;;19.25;49.65;98085.19;10413640;28;20127;-59
2022/10/08 11:24:02;;;;;;;10.32;5.45;;;;;;;19.47;50.15;98084.53;10413692;28;20064;-59
2022/10/08 11:29:08;;;;;;;9.45;5.40;;;;;;;19.56;49.73;98071.13;10412581;28;20110;-59
2022/10/08 11:34:22;;;;;;;7.30;5.30;;;;;;;19.55;47.87;98064.09;10421639;28;20082;-59
2022/10/08 11:39:31;;;;;;;7.45;4.93;;;;;;;19.55;47.52;98048.28;10402867;28;20108;-59
2022/10/08 11:44:31;;;;;;;9.40;5.20;;;;;;;19.65;48.20;98044.50;10380771;28;20057;-60
2022/10/08 11:49:30;;;;;;;7.65;5.55;;;;;;;19.68;48.02;98044.38;10379269;28;20059;-59
2022/10/08 11:54:37;;;;;;;6.95;5.10;;;;;;;19.81;48.06;98039.56;10380012;28;20021;-59
2022/10/08 11:59:42;;;;;;;8.38;5.30;;;;;;;19.82;47.00;98036.88;10379479;28;20080;-59
2022/10/08 12:04:41;;;;;;;8.90;5.65;;;;;;;20.11;47.60;98023.63;10378109;28;20060;-59
2022/10/08 12:10:05;;;;;;;7.55;4.93;;;;;;;20.18;46.20;98012.81;10376359;28;20067;-60
2022/10/08 12:15:28;;;;;;;8.05;5.22;;;;;;;20.05;45.91;98011.53;10377025;28;20071;-60
2022/10/08 12:20:31;;;;;;;6.72;5.10;;;;;;;19.92;46.32;97997.91;10377810;28;20076;-60
2022/10/08 12:26:01;;;;;;;7.72;5.07;;;;;;;19.96;46.91;97996.03;10419229;28;20075;-59
2022/10/08 12:31:15;;;;;;;6.72;5.03;;;;;;;20.17;46.30;97987.38;10387388;28;20060;-60
2022/10/08 12:36:36;;;;;;;6.78;4.57;;;;;;;20.43;46.43;97985.59;10381617;28;20063;-60
2022/10/08 12:42:10;;;;;;;7.03;5.10;;;;;;;20.37;44.36;97969.97;10390981;28;20130;-59
2022/10/08 12:47:26;;;;;;;8.75;4.95;;;;;;;20.42;44.16;97954.88;10368651;28;20075;-60
2022/10/08 12:52:31;;;;;;;7.55;4.97;;;;;;;20.58;45.02;97969.19;10377225;28;20056;-60
2022/10/08 12:57:34;;;;;;;7.85;5.45;;;;;;;20.68;44.71;97949.47;10377383;28;20080;-59
2022/10/08 13:02:37;;;;;;;8.45;5.05;;;;;;;20.58;43.45;97955.16;10376315;28;20068;-59
2022/10/08 13:07:35;;;;;;;7.88;4.90;;;;;;;20.83;44.49;97953.28;10375993;28;20063;-60
2022/10/08 13:12:34;;;;;;;8.32;4.90;;;;;;;20.83;43.06;97947.16;10377217;28;20025;-60
2022/10/08 13:17:35;;;;;;;6.53;5.30;;;;;;;20.91;43.33;97939.78;10376185;28;20053;-59
2022/10/08 13:22:34;;;;;;;6.32;4.97;;;;;;;20.94;43.00;97939.69;10391923;28;20060;-60
2022/10/08 13:27:33;;;;;;;6.43;4.43;;;;;;;20.90;41.64;97940.72;10417135;28;20101;-59
2022/10/08 13:32:37;;;;;;;6.50;4.80;;;;;;;20.89;41.74;97933.72;10416516;28;20110;-59
2022/10/08 13:37:38;;;;;;;8.18;4.70;;;;;;;20.90;42.07;97922.25;10415940;28;20063;-59
2022/10/08 13:42:54;;;;;;;7.95;4.40;;;;;;;21.05;42.09;97921.63;10416309;28;20082;-60
2022/10/08 13:47:53;;;;;;;7.32;4.63;;;;;;;21.08;41.79;97923.31;10415968;28;20072;-59
2022/10/08 13:52:56;;;;;;;7.40;5.18;;;;;;;21.04;41.99;97925.19;10413346;28;20059;-59
2022/10/08 13:57:58;;;;;;;5.40;4.07;;;;;;;20.81;41.71;97922.63;10412463;28;20072;-59
2022/10/08 14:02:57;;;;;;;6.72;4.38;;;;;;;20.82;42.12;97924.31;10411474;28;20533;-59
2022/10/08 14:08:03;;;;;;;8.48;4.30;;;;;;;20.87;42.17;97915.31;10410448;28;20499;-59
2022/10/08 14:13:02;;;;;;;8.48;5.50;;;;;;;20.79;42.42;97919.19;10412475;28;20071;-60
2022/10/08 14:18:01;;;;;;;7.50;4.57;;;;;;;20.83;42.04;97915.50;10412737;28;20124;-59
2022/10/08 14:23:00;;;;;;;6.13;4.60;;;;;;;20.64;41.96;97900.41;10414100;28;20033;-59
2022/10/08 14:28:00;;;;;;;7.13;4.75;;;;;;;20.61;42.38;97905.81;10415405;28;20075;-60
2022/10/08 14:32:59;;;;;;;6.53;4.95;;;;;;;20.59;42.66;97905.00;10414587;28;20527;-59
2022/10/08 14:37:58;;;;;;;11.00;5.40;;;;;;;20.43;43.19;97901.25;10414506;28;20840;-60
2022/10/08 14:42:57;;;;;;;8.60;5.28;;;;;;;20.19;44.21;97902.97;10414846;28;20070;-59
2022/10/08 14:47:56;;;;;;;6.90;5.28;;;;;;;20.04;44.79;97904.41;10414235;28;20846;-59
2022/10/08 14:52:55;;;;;;;9.05;6.25;;;;;;;19.95;45.30;97878.41;10412539;28;20047;-59
2022/10/08 14:57:54;;;;;;;10.98;6.55;;;;;;;19.97;45.49;97903.78;10414283;28;20445;-59
2022/10/08 15:02:53;;;;;;;9.95;6.43;;;;;;;19.80;45.53;97908.81;10414034;28;20029;-59
2022/10/08 15:07:52;;;;;;;10.48;7.60;;;;;;;19.73;45.72;97905.53;10418038;28;20111;-59
2022/10/08 15:12:51;;;;;;;7.88;5.90;;;;;;;19.50;46.47;97911.56;10424057;28;20075;-59
2022/10/08 15:17:52;;;;;;;10.55;7.57;;;;;;;19.41;46.71;97911.88;10424613;28;20053;-59
2022/10/08 15:22:51;;;;;;;12.25;8.45;;;;;;;19.32;46.67;97905.19;10423963;28;20075;-59
2022/10/08 15:27:50;;;;;;;11.05;7.65;;;;;;;19.24;46.64;97912.47;10424146;28;20068;-59
2022/10/08 15:32:49;;;;;;;11.00;7.40;;;;;;;19.01;47.00;97914.06;10424345;28;20111;-59
2022/10/08 15:37:48;;;;;;;14.48;9.57;;;;;;;18.94;47.95;97922.19;10424146;28;20214;-59
2022/10/08 15:42:49;;;;;;;52.13;45.47;;;;;;;18.78;49.12;97932.34;10423916;28;20083;-59
2022/10/08 15:47:48;;;;;;;44.00;36.80;;;;;;;18.53;50.04;97933.06;10424051;28;20059;-59
2022/10/08 15:52:47;;;;;;;514.72;409.98;;;;;;;18.26;51.14;97931.25;10423651;28;20068;-59
2022/10/08 15:57:46;;;;;;;154.95;114.53;;;;;;;17.96;52.10;97944.34;10423624;28;20606;-59
2022/10/08 16:02:45;;;;;;;;;;;;;;;17.68;52.84;97946.81;10424445;28;20035;-59
2022/10/08 16:07:44;;;;;;;52.77;42.17;;;;;;;17.40;54.18;97949.31;10423068;28;19908;-59
2022/10/08 16:12:43;;;;;;;37.55;30.48;;;;;;;17.11;55.46;97956.13;10419478;28;20110;-59
2022/10/08 16:17:42;;;;;;;29.67;19.77;;;;;;;16.80;56.57;97953.34;10416643;28;20099;-59
2022/10/08 16:22:41;;;;;;;;;;;;;;;16.51;57.93;97960.97;10417251;28;20036;-59
2022/10/08 16:27:40;;;;;;;25.88;16.98;;;;;;;16.28;58.91;97965.81;10416196;28;20307;-59
2022/10/08 16:32:39;;;;;;;42.88;27.42;;;;;;;15.98;60.31;97969.91;10416544;28;20067;-59
2022/10/08 16:37:38;;;;;;;;;;;;;;;15.75;61.04;97971.16;10416387;28;20553;-59
2022/10/08 16:42:37;;;;;;;120.32;85.22;;;;;;;15.55;61.79;97974.16;10415591;28;20334;-59
2022/10/08 16:47:37;;;;;;;;;;;;;;;15.36;63.20;97980.56;10416079;28;20033;-59
2022/10/08 16:52:36;;;;;;;221.82;159.02;;;;;;;15.06;63.76;97974.97;10415466;28;20387;-59
2022/10/08 16:57:35;;;;;;;;;;;;;;;14.96;64.08;97991.63;10415801;28;20090;-59
2022/10/08 17:02:33;;;;;;;52.70;36.83;;;;;;;14.83;64.51;97997.06;10415668;28;19963;-59
2022/10/08 17:07:32;;;;;;;;;;;;;;;14.67;65.48;97990.28;10414955;28;20024;-58
2022/10/08 17:12:31;;;;;;;46.17;34.20;;;;;;;14.51;66.31;98004.44;10411730;28;19923;-59
2022/10/08 17:17:30;;;;;;;29.85;19.50;;;;;;;14.35;67.42;98007.22;10413301;28;20052;-59
2022/10/08 17:22:29;;;;;;;34.38;25.95;;;;;;;14.17;68.03;98007.44;10412263;28;20027;-59
2022/10/08 17:27:28;;;;;;;23.15;17.80;;;;;;;14.01;69.31;98009.38;10413192;28;20412;-59
2022/10/08 17:32:27;;;;;;;30.45;21.75;;;;;;;13.84;70.11;98019.09;10413871;28;20839;-59
2022/10/08 17:37:26;;;;;;;36.83;24.13;;;;;;;13.67;71.07;98020.13;10413317;28;20527;-59
2022/10/08 17:42:25;;;;;;;39.58;24.92;;;;;;;13.52;72.15;98021.09;10414459;28;20513;-59
2022/10/08 17:47:24;;;;;;;35.88;25.00;;;;;;;13.37;72.77;98021.19;10412671;28;20020;-59
2022/10/08 17:52:23;;;;;;;33.90;26.02;;;;;;;13.27;73.38;98020.41;10413165;28;20048;-59
2022/10/08 17:57:22;;;;;;;32.22;21.25;;;;;;;13.16;74.14;98024.84;10412878;28;20035;-59
2022/10/08 18:02:21;;;;;;;27.58;18.90;;;;;;;13.02;75.08;98024.06;10412050;28;20029;-59
2022/10/08 18:07:20;;;;;;;27.65;20.60;;;;;;;12.96;75.32;98031.94;10411975;28;20663;-59
2022/10/08 18:12:19;;;;;;;37.72;26.83;;;;;;;12.85;75.67;98039.81;10411940;28;20411;-59
2022/10/08 18:17:18;;;;;;;58.75;36.67;;;;;;;12.72;76.23;98026.00;10412082;28;20040;-59
2022/10/08 18:22:20;;;;;;;51.40;31.73;;;;;;;12.63;76.89;98042.53;10412065;28;20055;-59
2022/10/08 18:27:19;;;;;;;42.15;28.98;;;;;;;12.50;77.50;98046.03;10410806;28;20071;-58
2022/10/08 18:32:18;;;;;;;47.17;31.92;;;;;;;12.30;77.71;98046.13;10412315;28;20064;-59
2022/10/08 18:37:17;;;;;;;42.30;29.95;;;;;;;12.24;78.09;98041.75;10411514;28;20032;-59
2022/10/08 18:42:16;;;;;;;42.97;30.05;;;;;;;12.08;78.23;98046.13;10409000;28;20491;-59
2022/10/08 18:47:15;;;;;;;36.08;27.65;;;;;;;12.07;78.54;98056.56;10411417;28;20491;-58
2022/10/08 18:52:14;;;;;;;39.53;27.42;;;;;;;12.00;79.20;98068.72;10411194;28;20016;-59
2022/10/08 18:57:12;;;;;;;35.75;27.48;;;;;;;11.90;79.88;98067.00;10410571;28;20024;-59
2022/10/08 19:02:11;;;;;;;38.75;29.40;;;;;;;11.85;80.01;98068.72;10410896;28;20044;-59
2022/10/08 19:07:10;;;;;;;43.33;29.33;;;;;;;11.73;80.12;98056.59;10410969;28;20024;-59
2022/10/08 19:12:09;;;;;;;44.38;30.08;;;;;;;11.72;80.85;98072.22;10410130;28;20027;-59
2022/10/08 19:17:08;;;;;;;37.00;27.63;;;;;;;11.60;81.14;98073.09;10397273;28;20432;-59
2022/10/08 19:22:07;;;;;;;29.25;24.00;;;;;;;11.56;82.24;98076.53;10404481;28;20078;-59
2022/10/08 19:27:06;;;;;;;32.47;22.30;;;;;;;11.50;82.63;98079.13;10409706;28;20195;-59
2022/10/08 19:32:05;;;;;;;40.38;25.25;;;;;;;11.22;83.22;98050.50;10408404;28;20102;-59
2022/10/08 19:37:04;;;;;;;38.33;27.35;;;;;;;11.27;83.83;98074.78;10410709;28;20025;-59
2022/10/08 19:42:03;;;;;;;45.80;31.98;;;;;;;11.27;84.26;98079.09;10409761;28;20029;-59
2022/10/08 19:47:02;;;;;;;;;;;;;;;11.21;83.89;98072.19;10410435;28;20060;-59
2022/10/08 19:52:01;;;;;;;27.25;19.55;;;;;;;11.14;84.55;98089.47;10412330;28;19969;-59
2022/10/08 19:57:00;;;;;;;26.50;17.23;;;;;;;11.10;84.09;98098.13;10416225;28;20051;-59
2022/10/08 20:01:59;;;;;;;28.85;20.98;;;;;;;11.03;84.89;98092.06;10416425;28;20035;-59
2022/10/08 20:07:00;;;;;;;39.97;27.58;;;;;;;10.99;84.37;98087.72;10416850;28;20117;-58
2022/10/08 20:11:59;;;;;;;43.28;30.55;;;;;;;10.94;85.42;98086.84;10420271;28;20060;-58
2022/10/08 20:16:58;;;;;;;47.92;37.80;;;;;;;10.86;84.91;98091.09;10419707;28;20040;-59
2022/10/08 20:21:57;;;;;;;54.42;38.38;;;;;;;10.77;85.67;98085.88;10420091;28;20035;-59
2022/10/08 20:26:56;;;;;;;48.53;36.50;;;;;;;10.73;85.91;98086.72;10419716;28;20025;-59
2022/10/08 20:31:55;;;;;;;65.10;50.30;;;;;;;10.70;86.90;98081.53;10419556;28;20028;-58
2022/10/08 20:36:54;;;;;;;57.53;43.45;;;;;;;10.57;86.98;98081.47;10419925;28;20067;-59
2022/10/08 20:41:53;;;;;;;59.58;40.00;;;;;;;10.56;87.40;98090.09;10419392;28;20066;-58
2022/10/08 20:46:52;;;;;;;55.13;39.53;;;;;;;10.43;88.68;98093.53;10418373;28;20464;-59
2022/10/08 20:51:51;;;;;;;56.15;37.20;;;;;;;10.41;88.47;98098.69;10419990;28;20807;-58
2022/10/08 20:56:50;;;;;;;45.05;35.22;;;;;;;10.32;88.80;98100.38;10418540;28;20128;-59
2022/10/08 21:01:49;;;;;;;54.75;39.17;;;;;;;10.08;89.13;98072.59;10418059;28;20042;-59
2022/10/08 21:06:49;;;;;;;49.33;35.28;;;;;;;10.15;88.95;98092.50;10416967;28;20106;-59
2022/10/08 21:11:48;;;;;;;45.13;34.03;;;;;;;10.01;89.74;98076.00;10415013;28;20474;-59
2022/10/08 21:16:47;;;;;;;44.13;31.92;;;;;;;10.01;90.20;98100.19;10412468;28;20079;-59
2022/10/08 21:21:46;;;;;;;43.60;30.23;;;;;;;9.92;90.84;98094.94;10414312;28;20064;-58
2022/10/08 21:26:45;;;;;;;42.95;32.00;;;;;;;9.89;90.91;98089.75;10414642;28;20072;-59
2022/10/08 21:31:44;;;;;;;41.50;32.85;;;;;;;9.91;90.77;98085.41;10413572;28;20020;-59
2022/10/08 21:36:43;;;;;;;43.78;34.13;;;;;;;9.90;91.10;98083.69;10413560;28;20040;-59
2022/10/08 21:41:43;;;;;;;43.38;33.78;;;;;;;9.85;91.33;98080.22;10413481;28;20440;-59
2022/10/08 21:46:42;;;;;;;40.67;30.58;;;;;;;9.82;91.02;98077.59;10413149;28;20075;-58
2022/10/08 21:51:41;;;;;;;42.38;32.47;;;;;;;9.81;90.87;98070.66;10413611;28;20060;-59
2022/10/08 21:56:41;;;;;;;38.33;29.40;;;;;;;9.77;90.75;98074.97;10413348;28;20072;-59
2022/10/08 22:01:48;;;;;;;39.00;30.80;;;;;;;9.73;90.91;98063.72;10412222;28;20056;-59
2022/10/08 22:06:50;;;;;;;40.35;29.75;;;;;;;9.65;91.08;98064.50;10412444;28;20202;-59
2022/10/08 22:11:51;;;;;;;43.53;31.20;;;;;;;9.62;91.14;98057.56;10408585;28;20111;-58
2022/10/08 22:16:50;;;;;;;48.08;34.58;;;;;;;9.55;91.43;98058.38;10408274;28;20083;-58
2022/10/08 22:21:49;;;;;;;;;;;;;;;9.48;91.98;98056.59;10409039;28;20064;-58
2022/10/08 22:26:48;;;;;;;59.28;45.25;;;;;;;9.42;91.73;98051.34;10411274;28;20246;-59
2022/10/08 22:31:47;;;;;;;52.67;39.58;;;;;;;9.38;91.63;98047.03;10411681;28;20083;-58
2022/10/08 22:36:46;;;;;;;49.15;36.88;;;;;;;9.31;91.84;98046.09;10411304;28;20041;-58
2022/10/08 22:41:45;;;;;;;51.15;34.95;;;;;;;9.18;92.11;98041.63;10412096;28;20087;-58
2022/10/08 22:46:44;;;;;;;47.85;35.60;;;;;;;9.17;91.93;98043.34;10410982;28;20075;-58
2022/10/08 22:51:43;;;;;;;46.60;35.20;;;;;;;9.12;92.28;98037.28;10410970;28;20099;-58
2022/10/08 22:56:42;;;;;;;42.40;32.10;;;;;;;9.08;92.40;98038.09;10412458;28;20064;-58
2022/10/08 23:01:41;;;;;;;43.30;32.15;;;;;;;9.05;92.25;98035.47;10410975;28;20123;-58
2022/10/08 23:06:40;;;;;;;46.15;33.65;;;;;;;9.02;92.29;98032.84;10410677;28;20035;-58
2022/10/08 23:11:38;;;;;;;51.50;35.45;;;;;;;8.95;92.31;98031.94;10414284;28;20586;-58
2022/10/08 23:16:37;;;;;;;51.35;35.78;;;;;;;8.92;92.44;98047.41;10414110;28;20502;-58